Pago Pago, AS

2:56 PM SST on August 31, 2016 (GMT -1100)
Malaeimi | | Change Station

Elev 217 ft 14.32 °S, 170.74 °W | Updated 25 minutes ago

Rain
Rain
79.2 °F
Feels Like 84 °F
N
3.0
Wind Variable Wind from WSW
Gusts 3.0 mph

Today
High -- | Low -- °F
--% Chance of Precip.
Yesterday
High -- | Low -- °F
Precip. -- in
Pressure 29.80 in
Visibility 10.0 miles
Clouds Scattered Clouds 7000 ft
Heat Index 84 °F
Dew Point 77 °F
Humidity 92%
Rainfall 0.32 in
Snow Depth Not available.
6:27 AM 6:18 PM
Waning Crescent, 0% visible
METAR PHKO 010153Z 18010KT 10SM SCT070 31/23 A2980 RMK AO2 SLP091 T03110233
Pressure 29.80 in
Visibility 10.0 miles
Clouds Scattered Clouds 7000 ft
Heat Index 84 °F
Dew Point 77 °F
Humidity 92%
Rainfall 0.32 in
Snow Depth Not available.
6:27 AM 6:18 PM
Waning Crescent, 0% visible
METAR PHKO 010153Z 18010KT 10SM SCT070 31/23 A2980 RMK AO2 SLP091 T03110233

10-Day Weather Forecast

No radar image for this location.
×

Almanac

Astronomy

Aug. 31, 2016 Rise Set
Actual Time
Civil Twilight
Nautical Twilight
Astronomical Twilight
Moon
Length of Visible Light
Length of Day
Tomorrow will be .
, % of the Moon is Illuminated

Today's Extremes

State Highs State Lows

Community

WunderPhotos

Upload Photos

1,936,266 photos uploaded!

WunderBlog® & News

Nearby

Air Quality

  Air Quality AQ Index Pollutant
Not available.

Snow Depth

Station Depth Elevation

Earthquake Activity

City Distance Mag. Time & Date
Minimum magnitude displayed is 2.5.

Coastal Water Temperatures

Place Temperature

Stations

Nearby Weather Stations

Station Location Temp. Windchill Dew Point Humidity Wind Precip. Elev Updated Type
                   

Watches & Warnings

There are currently no watches in effect.